createdAt,value
2022-09-12T00:01:08.000Z,84.32
2022-09-12T00:03:35.412Z,84.31
2022-09-12T00:06:08.214Z,84.62
2022-09-12T00:08:35.228Z,85.01
2022-09-12T00:11:07.636Z,85.38
2022-09-12T00:13:39.531Z,85.44
2022-09-12T00:16:21.294Z,85.72
2022-09-12T00:18:48.943Z,85.29
2022-09-12T00:21:18.262Z,85.97
2022-09-12T00:23:45.886Z,85.82
2022-09-12T00:26:13.685Z,86.22
2022-09-12T00:28:41.484Z,86.33
2022-09-12T00:31:18.879Z,87.13
2022-09-12T00:33:46.053Z,87.29
2022-09-12T00:36:17.311Z,86.91
2022-09-12T00:38:45.714Z,86.34
2022-09-12T00:41:33.408Z,86.00
2022-09-12T00:44:12.674Z,84.97
2022-09-12T00:47:15.765Z,85.49
2022-09-12T00:50:13.984Z,85.38
2022-09-12T00:52:48.112Z,85.81
2022-09-12T00:55:23.933Z,86.15
2022-09-12T00:58:05.037Z,85.95
2022-09-12T01:00:32.439Z,86.27
2022-09-12T01:03:06.185Z,86.88
2022-09-12T01:05:37.846Z,86.62
2022-09-12T01:08:06.073Z,86.06
2022-09-12T01:10:35.898Z,85.76
2022-09-12T01:13:07.245Z,86.32
2022-09-12T01:15:35.069Z,86.30
2022-09-12T01:18:19.154Z,86.18
2022-09-12T01:21:16.430Z,87.54
2022-09-12T01:23:54.950Z,87.70
2022-09-12T01:26:57.779Z,88.66
2022-09-12T01:29:45.520Z,88.26
2022-09-12T01:32:47.025Z,87.50
2022-09-12T01:35:28.576Z,86.88
2022-09-12T01:38:17.773Z,87.19
2022-09-12T01:41:22.930Z,86.67
2022-09-12T01:44:01.761Z,85.86
2022-09-12T01:46:41.807Z,86.62
2022-09-12T01:49:32.974Z,87.09
2022-09-12T01:52:11.364Z,87.81
2022-09-12T01:54:48.189Z,87.99
2022-09-12T01:57:25.731Z,87.52
2022-09-12T02:00:01.200Z,87.39
2022-09-12T02:02:49.145Z,88.28
2022-09-12T02:05:39.389Z,88.63
2022-09-12T02:08:15.674Z,88.38
2022-09-12T02:11:10.674Z,87.86
2022-09-12T02:13:56.897Z,87.55
2022-09-12T02:16:36.701Z,88.53
2022-09-12T02:19:19.561Z,88.50
2022-09-12T02:21:55.496Z,88.08
2022-09-12T02:24:44.219Z,86.89
2022-09-12T02:27:49.540Z,86.73
2022-09-12T02:30:17.733Z,87.14
2022-09-12T02:33:07.019Z,87.27
2022-09-12T02:35:47.357Z,86.57
2022-09-12T02:38:28.451Z,86.02
2022-09-12T02:40:55.266Z,86.22
2022-09-12T02:43:22.022Z,86.15
2022-09-12T02:45:48.954Z,86.08
2022-09-12T02:48:29.338Z,85.57
2022-09-12T02:50:56.528Z,86.15
2022-09-12T02:53:25.920Z,86.42
2022-09-12T02:55:53.195Z,86.64
2022-09-12T02:58:26.501Z,86.66
2022-09-12T03:01:23.160Z,85.86
2022-09-12T03:04:34.871Z,86.44
2022-09-12T03:07:20.006Z,85.95
2022-09-12T03:10:03.828Z,85.58
2022-09-12T03:12:46.669Z,85.99
2022-09-12T03:15:42.249Z,86.46
2022-09-12T03:18:34.886Z,86.21
2022-09-12T03:21:27.598Z,86.17
2022-09-12T03:24:18.742Z,87.11
2022-09-12T03:26:56.581Z,87.64
2022-09-12T03:29:26.274Z,87.87
2022-09-12T03:31:58.264Z,88.11
2022-09-12T03:34:27.815Z,87.69
2022-09-12T03:36:55.626Z,88.01
2022-09-12T03:39:24.552Z,88.53
2022-09-12T03:41:51.909Z,88.58
2022-09-12T03:44:19.804Z,88.27
2022-09-12T03:46:46.572Z,89.02
2022-09-12T03:49:13.665Z,89.45
2022-09-12T03:51:40.898Z,89.39
2022-09-12T03:54:07.680Z,89.14
2022-09-12T03:56:35.347Z,89.01
2022-09-12T03:59:05.361Z,88.90
2022-09-12T04:01:32.326Z,89.00
2022-09-12T04:03:59.089Z,89.56
2022-09-12T04:06:25.813Z,89.50
2022-09-12T04:08:54.854Z,89.78
2022-09-12T04:11:22.916Z,89.82
2022-09-12T04:13:50.061Z,89.24
2022-09-12T04:16:18.107Z,89.92
2022-09-12T04:18:46.209Z,89.52
2022-09-12T04:21:17.625Z,88.69
2022-09-12T04:23:45.070Z,89.19
2022-09-12T04:26:13.888Z,89.10
2022-09-12T04:28:41.743Z,88.98
2022-09-12T04:31:20.805Z,88.38
2022-09-12T04:33:47.554Z,88.71
2022-09-12T04:36:17.793Z,88.63
2022-09-12T04:38:46.991Z,88.50
2022-09-12T04:41:18.247Z,88.67
2022-09-12T04:43:48.675Z,88.45
2022-09-12T04:46:20.095Z,88.82
2022-09-12T04:48:47.902Z,89.19
2022-09-12T04:51:21.155Z,88.78
2022-09-12T04:53:51.989Z,88.83
2022-09-12T04:56:20.764Z,88.68
2022-09-12T04:58:48.875Z,88.35
2022-09-12T05:01:21.276Z,89.19
2022-09-12T05:03:50.006Z,90.21
2022-09-12T05:06:20.835Z,90.17
2022-09-12T05:08:48.077Z,90.05
2022-09-12T05:11:22.798Z,90.32
2022-09-12T05:13:52.053Z,90.76
2022-09-12T05:16:20.930Z,90.79
2022-09-12T05:18:49.128Z,91.59
2022-09-12T05:21:19.457Z,91.65
2022-09-12T05:23:50.419Z,92.23
2022-09-12T05:26:18.518Z,92.08
2022-09-12T05:28:45.253Z,91.85
2022-09-12T05:31:14.830Z,91.44
2022-09-12T05:33:44.074Z,90.99
2022-09-12T05:36:19.784Z,90.61
2022-09-12T05:38:47.766Z,90.57
2022-09-12T05:41:24.665Z,90.48
2022-09-12T05:43:57.718Z,90.45
2022-09-12T05:46:29.474Z,90.35
2022-09-12T05:48:57.445Z,90.10
2022-09-12T05:51:35.260Z,90.40
2022-09-12T05:54:04.794Z,90.24
2022-09-12T05:56:34.488Z,89.77
2022-09-12T05:59:04.803Z,89.27
2022-09-12T06:01:34.056Z,90.08
2022-09-12T06:04:05.435Z,90.09
2022-09-12T06:06:37.186Z,89.40
2022-09-12T06:09:05.311Z,88.82
2022-09-12T06:11:34.742Z,89.37
2022-09-12T06:14:02.109Z,89.57
2022-09-12T06:16:33.208Z,89.41
2022-09-12T06:19:04.709Z,88.84
2022-09-12T06:21:31.478Z,88.57
2022-09-12T06:23:59.092Z,88.59
2022-09-12T06:26:27.145Z,88.43
2022-09-12T06:28:56.745Z,88.70
2022-09-12T06:31:27.955Z,89.01
2022-09-12T06:33:56.201Z,89.07
2022-09-12T06:36:29.607Z,89.46
2022-09-12T06:39:04.226Z,89.61
2022-09-12T06:41:32.486Z,90.15
2022-09-12T06:44:00.613Z,90.19
2022-09-12T06:46:28.408Z,90.30
2022-09-12T06:49:00.702Z,91.23
2022-09-12T06:51:29.095Z,91.44
2022-09-12T06:53:57.647Z,90.62
2022-09-12T06:56:27.429Z,90.30
2022-09-12T06:58:57.621Z,90.61
2022-09-12T07:01:28.013Z,91.27
2022-09-12T07:04:00.759Z,92.18
2022-09-12T07:06:33.654Z,92.97
2022-09-12T07:09:03.544Z,93.78
2022-09-12T07:11:36.761Z,94.01
2022-09-12T07:14:06.512Z,94.29
2022-09-12T07:16:36.679Z,94.72
2022-09-12T07:19:06.427Z,94.53
2022-09-12T07:21:33.289Z,94.10
2022-09-12T07:24:00.043Z,94.10
2022-09-12T07:26:29.139Z,94.24
2022-09-12T07:29:18.720Z,93.86
2022-09-12T07:31:45.469Z,93.82
2022-09-12T07:34:12.205Z,93.42
2022-09-12T07:36:39.291Z,93.38
2022-09-12T07:39:06.215Z,93.52
2022-09-12T07:41:36.119Z,93.51
2022-09-12T07:44:04.595Z,93.93
2022-09-12T07:46:31.682Z,94.03
2022-09-12T07:49:00.823Z,94.24
2022-09-12T07:51:30.283Z,94.03
2022-09-12T07:53:57.737Z,94.34
2022-09-12T07:56:29.698Z,95.79
2022-09-12T07:58:57.538Z,94.76
2022-09-12T08:01:24.986Z,93.35
2022-09-12T08:03:58.102Z,93.39
2022-09-12T08:06:25.538Z,91.97
2022-09-12T08:08:55.621Z,91.39
2022-09-12T08:11:23.845Z,91.67
2022-09-12T08:13:55.315Z,91.40
2022-09-12T08:16:27.392Z,90.60
2022-09-12T08:18:54.634Z,89.54
2022-09-12T08:21:24.804Z,89.73
2022-09-12T08:24:04.113Z,88.79
2022-09-12T08:26:32.846Z,88.58
2022-09-12T08:28:59.982Z,85.55
2022-09-12T08:31:28.397Z,85.90
2022-09-12T08:33:56.874Z,84.51
2022-09-12T08:36:26.810Z,76.19
2022-09-12T08:39:04.940Z,73.70
2022-09-12T08:41:46.201Z,71.81
2022-09-12T08:45:03.451Z,71.15
2022-09-12T08:47:39.133Z,71.56
2022-09-12T08:50:08.750Z,71.10
2022-09-12T08:53:14.786Z,70.39
2022-09-12T08:55:59.261Z,69.65
2022-09-12T08:58:29.063Z,68.98
2022-09-12T09:01:07.568Z,66.53
2022-09-12T09:04:14.193Z,64.07
2022-09-12T09:07:26.014Z,63.22
2022-09-12T09:10:12.558Z,61.94
2022-09-12T09:13:39.892Z,61.24
2022-09-12T09:16:21.577Z,61.90
2022-09-12T09:18:49.651Z,59.90
2022-09-12T09:21:39.941Z,58.90
2022-09-12T09:24:12.166Z,59.05
2022-09-12T09:26:44.467Z,57.99
2022-09-12T09:29:24.077Z,58.42
2022-09-12T09:31:56.070Z,57.79
2022-09-12T09:34:27.004Z,58.82
2022-09-12T09:37:05.910Z,56.29
2022-09-12T09:40:10.037Z,57.04
2022-09-12T09:42:59.185Z,57.52
2022-09-12T09:45:29.258Z,55.63
2022-09-12T09:48:16.849Z,54.90
2022-09-12T09:50:44.142Z,54.86
2022-09-12T09:53:46.389Z,53.04
2022-09-12T09:56:48.538Z,54.20
2022-09-12T09:59:29.839Z,52.52
2022-09-12T10:02:23.643Z,50.95
2022-09-12T10:04:57.589Z,52.37
2022-09-12T10:07:25.429Z,51.90
2022-09-12T10:10:13.504Z,51.07
2022-09-12T10:12:40.731Z,50.74
2022-09-12T10:15:26.638Z,48.40
2022-09-12T10:17:55.845Z,48.18
2022-09-12T10:20:43.001Z,48.72
2022-09-12T10:23:37.557Z,47.65
2022-09-12T10:26:11.721Z,46.35
2022-09-12T10:28:43.492Z,45.83
2022-09-12T10:31:28.995Z,46.68
2022-09-12T10:34:00.169Z,46.06
2022-09-12T10:36:37.605Z,46.19
2022-09-12T10:39:05.641Z,47.77
2022-09-12T10:41:41.066Z,45.66
2022-09-12T10:44:15.921Z,45.41
2022-09-12T10:46:42.823Z,45.74
2022-09-12T10:49:38.142Z,42.62
2022-09-12T10:52:25.045Z,42.33
2022-09-12T10:54:52.549Z,42.80
2022-09-12T10:57:31.150Z,42.56
2022-09-12T11:00:17.958Z,43.37
2022-09-12T11:03:16.180Z,42.44
2022-09-12T11:06:01.585Z,43.74
2022-09-12T11:09:17.631Z,42.60
2022-09-12T11:11:59.728Z,43.08
2022-09-12T11:14:44.344Z,42.51
2022-09-12T11:17:34.016Z,41.48
2022-09-12T11:20:23.837Z,42.80
2022-09-12T11:23:11.020Z,43.72
2022-09-12T11:26:07.317Z,44.32
2022-09-12T11:29:00.793Z,43.42
2022-09-12T11:31:52.819Z,43.59
2022-09-12T11:34:58.390Z,41.53
2022-09-12T11:37:30.552Z,40.70
2022-09-12T11:40:23.172Z,40.86
2022-09-12T11:42:54.897Z,39.83
2022-09-12T11:45:37.332Z,40.04
2022-09-12T11:48:12.663Z,39.75
2022-09-12T11:50:39.395Z,38.42
2022-09-12T11:53:23.322Z,39.98
2022-09-12T11:56:04.398Z,40.25
2022-09-12T11:58:31.566Z,39.71
2022-09-12T12:01:16.125Z,40.05
2022-09-12T12:03:46.411Z,39.28
2022-09-12T12:06:22.005Z,39.00
2022-09-12T12:08:50.735Z,38.47
2022-09-12T12:11:34.191Z,36.25
2022-09-12T12:14:23.474Z,36.90
2022-09-12T12:16:50.990Z,36.80
2022-09-12T12:19:17.631Z,36.59
2022-09-12T12:21:50.389Z,38.01
2022-09-12T12:24:24.347Z,37.85
2022-09-12T12:26:53.517Z,37.67
2022-09-12T12:29:20.221Z,38.67
2022-09-12T12:32:08.022Z,37.34
2022-09-12T12:34:42.428Z,36.96
2022-09-12T12:37:29.792Z,35.71
2022-09-12T12:40:04.662Z,34.94
2022-09-12T12:42:34.421Z,35.08
2022-09-12T12:45:09.938Z,33.80
2022-09-12T12:47:36.565Z,31.82
2022-09-12T12:50:21.202Z,34.43
2022-09-12T12:52:54.769Z,34.07
2022-09-12T12:55:42.536Z,32.70
2022-09-12T12:58:33.188Z,32.59
2022-09-12T13:01:19.400Z,32.16
2022-09-12T13:04:02.158Z,32.44
2022-09-12T13:06:38.119Z,32.33
2022-09-12T13:09:09.964Z,32.66
2022-09-12T13:11:39.403Z,32.63
2022-09-12T13:14:42.527Z,31.57
2022-09-12T13:17:22.827Z,32.19
2022-09-12T13:20:00.767Z,31.04
2022-09-12T13:22:46.246Z,31.12
2022-09-12T13:25:31.045Z,31.25
2022-09-12T13:28:12.789Z,31.41
2022-09-12T13:30:56.334Z,31.76
2022-09-12T13:33:47.746Z,31.85
2022-09-12T13:36:44.341Z,31.20
2022-09-12T13:39:44.723Z,32.58
2022-09-12T13:42:34.681Z,32.24
2022-09-12T13:45:20.669Z,31.45
2022-09-12T13:47:54.282Z,30.49
2022-09-12T13:50:31.961Z,31.75
2022-09-12T13:53:05.476Z,31.01
2022-09-12T13:55:38.384Z,31.29
2022-09-12T13:58:06.859Z,30.85
2022-09-12T14:00:35.170Z,31.75
2022-09-12T14:03:43.338Z,31.79
2022-09-12T14:06:11.007Z,30.99
2022-09-12T14:08:41.649Z,31.55
2022-09-12T14:11:20.514Z,30.78
2022-09-12T14:13:48.305Z,32.07
2022-09-12T14:16:17.162Z,32.08
2022-09-12T14:18:48.142Z,31.97
2022-09-12T14:21:36.569Z,32.13
2022-09-12T14:24:07.036Z,32.18
2022-09-12T14:26:36.832Z,32.33
2022-09-12T14:29:08.006Z,31.25
2022-09-12T14:31:37.979Z,32.70
2022-09-12T14:34:16.306Z,31.70
2022-09-12T14:36:48.545Z,30.88
2022-09-12T14:39:41.592Z,30.19
2022-09-12T14:42:22.794Z,30.10
2022-09-12T14:44:58.533Z,29.50
2022-09-12T14:47:28.630Z,29.73
2022-09-12T14:49:55.437Z,28.89
2022-09-12T14:52:30.990Z,29.21
2022-09-12T14:55:20.179Z,29.24
2022-09-12T14:57:47.991Z,28.10
2022-09-12T15:00:20.970Z,28.02
2022-09-12T15:02:49.886Z,27.09
2022-09-12T15:05:22.297Z,27.45
2022-09-12T15:08:02.780Z,26.94
2022-09-12T15:10:36.687Z,26.67
2022-09-12T15:13:04.750Z,26.29
2022-09-12T15:15:32.676Z,26.13
2022-09-12T15:18:01.420Z,26.61
2022-09-12T15:20:32.770Z,25.75
2022-09-12T15:22:59.509Z,26.64
2022-09-12T15:25:26.504Z,28.17
2022-09-12T15:27:56.051Z,28.69
2022-09-12T15:30:22.810Z,28.58
2022-09-12T15:32:49.539Z,30.18
2022-09-12T15:35:23.718Z,32.00
2022-09-12T15:37:50.949Z,32.17
2022-09-12T15:40:20.907Z,32.58
2022-09-12T15:42:47.710Z,33.65
2022-09-12T15:45:21.879Z,33.50
2022-09-12T15:47:48.666Z,34.19
2022-09-12T15:50:15.472Z,34.61
2022-09-12T15:52:42.808Z,34.95
2022-09-12T15:55:22.181Z,34.55
2022-09-12T15:57:49.719Z,35.79
2022-09-12T16:00:18.122Z,36.55
2022-09-12T16:02:47.342Z,36.81
2022-09-12T16:05:22.026Z,36.52
2022-09-12T16:07:53.049Z,37.01
2022-09-12T16:10:24.823Z,37.72
2022-09-12T16:12:51.812Z,38.06
2022-09-12T16:15:22.030Z,38.65
2022-09-12T16:17:49.857Z,38.82
2022-09-12T16:20:17.449Z,38.65
2022-09-12T16:22:44.238Z,39.50
2022-09-12T16:25:11.065Z,39.66
2022-09-12T16:27:38.163Z,40.52
2022-09-12T16:30:07.548Z,41.03
2022-09-12T16:32:34.435Z,41.29
2022-09-12T16:35:01.250Z,41.15
2022-09-12T16:37:28.571Z,41.78
2022-09-12T16:39:55.736Z,41.86
2022-09-12T16:42:23.059Z,41.83
2022-09-12T16:44:49.793Z,43.02
2022-09-12T16:47:16.675Z,43.11
2022-09-12T16:49:43.454Z,43.33
2022-09-12T16:52:12.708Z,43.82
2022-09-12T16:54:39.721Z,44.23
2022-09-12T16:57:06.749Z,45.13
2022-09-12T16:59:33.643Z,46.92
2022-09-12T17:02:00.427Z,48.72
2022-09-12T17:04:27.433Z,48.72
2022-09-12T17:06:54.162Z,50.19
2022-09-12T17:09:22.089Z,49.08
2022-09-12T17:11:50.300Z,49.70
2022-09-12T17:14:17.275Z,49.79
2022-09-12T17:16:51.521Z,49.76
2022-09-12T17:19:30.005Z,50.37
2022-09-12T17:21:58.010Z,51.57
2022-09-12T17:24:25.697Z,52.64
2022-09-12T17:26:53.672Z,52.79
2022-09-12T17:29:21.002Z,53.81
2022-09-12T17:31:48.242Z,53.79
2022-09-12T17:34:16.359Z,54.19
2022-09-12T17:36:44.728Z,54.26
2022-09-12T17:39:13.246Z,55.26
2022-09-12T17:41:42.947Z,56.27
2022-09-12T17:44:14.298Z,56.50
2022-09-12T17:46:42.571Z,57.32
2022-09-12T17:49:14.397Z,56.70
2022-09-12T17:51:41.974Z,57.20
2022-09-12T17:54:14.108Z,58.50
2022-09-12T17:56:41.145Z,58.62
2022-09-12T17:59:13.629Z,58.65
2022-09-12T18:01:59.233Z,58.87
2022-09-12T18:04:27.211Z,59.09
2022-09-12T18:06:54.334Z,59.28
2022-09-12T18:09:24.929Z,59.83
2022-09-12T18:11:53.116Z,60.10
2022-09-12T18:14:20.689Z,61.10
2022-09-12T18:16:48.310Z,60.57
2022-09-12T18:19:16.107Z,61.94
2022-09-12T18:21:43.145Z,61.22
2022-09-12T18:24:10.775Z,61.84
2022-09-12T18:26:38.100Z,62.06
2022-09-12T18:29:04.923Z,62.75
2022-09-12T18:31:31.892Z,62.62
2022-09-12T18:34:02.729Z,63.29
2022-09-12T18:36:30.747Z,63.29
2022-09-12T18:38:59.162Z,64.15
2022-09-12T18:41:27.006Z,64.21
2022-09-12T18:43:59.037Z,64.58
2022-09-12T18:46:28.561Z,65.26
2022-09-12T18:48:58.105Z,65.01
2022-09-12T18:51:33.623Z,65.23
2022-09-12T18:54:06.300Z,65.68
2022-09-12T18:56:37.697Z,66.06
2022-09-12T18:59:06.947Z,66.87
2022-09-12T19:01:37.037Z,67.34
2022-09-12T19:04:05.112Z,68.03
2022-09-12T19:06:44.601Z,68.50
2022-09-12T19:09:14.189Z,69.79
2022-09-12T19:11:48.813Z,70.51
2022-09-12T19:14:18.496Z,71.00
2022-09-12T19:16:45.731Z,70.56
2022-09-12T19:19:12.426Z,71.01
2022-09-12T19:21:39.141Z,70.70
2022-09-12T19:24:11.334Z,70.59
2022-09-12T19:26:39.211Z,70.45
2022-09-12T19:29:07.175Z,70.81
2022-09-12T19:31:34.595Z,70.93
2022-09-12T19:34:07.956Z,71.85
2022-09-12T19:36:50.723Z,74.02
2022-09-12T19:39:19.757Z,73.48
2022-09-12T19:41:47.554Z,73.13
2022-09-12T19:44:14.399Z,72.43
2022-09-12T19:46:41.147Z,72.12
2022-09-12T19:49:09.370Z,72.11
2022-09-12T19:51:36.076Z,72.14
2022-09-12T19:54:03.087Z,72.49
2022-09-12T19:56:29.891Z,72.89
2022-09-12T19:58:57.023Z,73.08
2022-09-12T20:01:30.769Z,73.03
2022-09-12T20:03:58.737Z,72.93
2022-09-12T20:06:26.542Z,73.50
2022-09-12T20:08:54.179Z,74.71
2022-09-12T20:11:23.548Z,75.23
2022-09-12T20:13:50.742Z,75.33
2022-09-12T20:16:22.752Z,75.24
2022-09-12T20:19:02.527Z,75.46
2022-09-12T20:21:32.261Z,76.21
2022-09-12T20:24:10.023Z,76.74
2022-09-12T20:26:37.102Z,77.14
2022-09-12T20:29:05.580Z,76.42
2022-09-12T20:31:33.571Z,77.43
2022-09-12T20:34:00.648Z,77.25
2022-09-12T20:36:27.620Z,78.12
2022-09-12T20:38:58.055Z,78.65
2022-09-12T20:41:26.700Z,78.74
2022-09-12T20:43:55.629Z,79.73
2022-09-12T20:46:24.493Z,80.23
2022-09-12T20:48:52.115Z,79.64
2022-09-12T20:51:21.073Z,78.24
2022-09-12T20:53:48.747Z,78.09
2022-09-12T20:56:15.658Z,78.21
2022-09-12T20:58:44.433Z,78.42
2022-09-12T21:01:13.406Z,78.15
2022-09-12T21:03:42.062Z,78.29
2022-09-12T21:06:10.264Z,79.22
2022-09-12T21:08:37.540Z,80.09
2022-09-12T21:11:05.658Z,80.09
2022-09-12T21:13:32.958Z,80.55
2022-09-12T21:16:21.087Z,80.99
2022-09-12T21:18:53.953Z,81.11
2022-09-12T21:21:22.557Z,80.55
2022-09-12T21:23:50.926Z,80.09
2022-09-12T21:26:18.416Z,79.65
2022-09-12T21:28:45.162Z,79.53
2022-09-12T21:31:12.090Z,79.68
2022-09-12T21:33:38.910Z,80.11
2022-09-12T21:36:07.154Z,79.71
2022-09-12T21:38:34.702Z,80.70
2022-09-12T21:41:13.886Z,80.11
2022-09-12T21:43:41.082Z,79.72
2022-09-12T21:46:08.539Z,79.96
2022-09-12T21:48:36.442Z,79.93
2022-09-12T21:51:04.283Z,80.56
2022-09-12T21:53:32.001Z,81.67
2022-09-12T21:56:07.541Z,83.92
2022-09-12T21:58:35.651Z,84.28
2022-09-12T22:01:02.985Z,84.10
2022-09-12T22:03:30.111Z,83.66
2022-09-12T22:05:59.259Z,83.66
2022-09-12T22:08:26.810Z,83.49
2022-09-12T22:10:56.967Z,82.40
2022-09-12T22:13:24.235Z,82.83
2022-09-12T22:15:52.147Z,84.52
2022-09-12T22:18:19.293Z,85.00
2022-09-12T22:20:46.337Z,85.00
2022-09-12T22:23:32.209Z,84.92
2022-09-12T22:26:01.480Z,84.36
2022-09-12T22:28:29.889Z,83.23
2022-09-12T22:30:56.929Z,83.53
2022-09-12T22:33:23.718Z,83.26
2022-09-12T22:35:50.455Z,83.84
2022-09-12T22:38:17.221Z,83.64
2022-09-12T22:40:44.070Z,84.22
2022-09-12T22:43:12.020Z,84.21
2022-09-12T22:45:42.025Z,83.99
2022-09-12T22:48:09.420Z,84.67
2022-09-12T22:50:36.341Z,84.24
2022-09-12T22:53:03.091Z,83.92
2022-09-12T22:55:29.915Z,84.47
2022-09-12T22:57:56.656Z,84.70
2022-09-12T23:00:23.867Z,84.88
2022-09-12T23:02:50.655Z,84.93
2022-09-12T23:05:17.453Z,84.62
2022-09-12T23:07:44.282Z,85.43
2022-09-12T23:10:11.137Z,85.43
2022-09-12T23:12:37.940Z,84.81
2022-09-12T23:15:05.703Z,84.07
2022-09-12T23:17:34.675Z,83.87
2022-09-12T23:20:02.730Z,84.43
2022-09-12T23:22:29.497Z,85.13
2022-09-12T23:24:56.277Z,84.62
2022-09-12T23:27:23.311Z,84.16
2022-09-12T23:29:52.455Z,83.17
2022-09-12T23:32:20.261Z,83.89
2022-09-12T23:34:48.471Z,83.19
2022-09-12T23:37:15.782Z,83.85
2022-09-12T23:39:42.808Z,83.79
2022-09-12T23:42:09.642Z,84.21
2022-09-12T23:44:36.354Z,84.58
2022-09-12T23:47:03.316Z,85.02
2022-09-12T23:49:30.333Z,85.81
2022-09-12T23:51:57.091Z,85.67
2022-09-12T23:54:25.146Z,86.38
2022-09-12T23:56:52.215Z,86.39
2022-09-12T23:59:19.030Z,87.48
